createdAt,value
2017-11-01T07:39:12.065Z,100781.28
2017-11-01T07:41:39.575Z,100778.41
2017-11-01T07:44:07.044Z,100775.49
2017-11-01T07:46:34.538Z,100770.34
2017-11-01T07:49:02.016Z,100771.81
2017-11-01T07:51:29.495Z,100776.85
2017-11-01T07:53:57.024Z,100769.95
2017-11-01T07:56:24.526Z,100772.75
2017-11-01T07:58:52.043Z,100769.97
2017-11-01T08:01:19.618Z,100771.33
2017-11-01T08:03:47.198Z,100768.69
2017-11-01T08:06:14.736Z,100774.39
2017-11-01T08:08:42.268Z,100783.95
2017-11-01T08:11:09.821Z,100777.97
2017-11-01T08:13:37.272Z,100776.77
2017-11-01T08:16:04.791Z,100789.02
2017-11-01T08:18:32.411Z,100779.47
2017-11-01T08:20:59.969Z,100781.61
2017-11-01T08:23:28.520Z,100777.25
2017-11-01T08:25:56.018Z,100781.84
2017-11-01T08:28:24.825Z,100790.84
2017-11-01T08:30:53.242Z,100790.85
2017-11-01T08:33:20.915Z,100784.50
2017-11-01T08:35:48.429Z,100790.75
2017-11-01T08:38:15.968Z,100791.39
2017-11-01T08:40:43.469Z,100801.47
2017-11-01T08:43:11.017Z,100799.08
2017-11-01T08:45:38.549Z,100805.33
2017-11-01T08:48:06.116Z,100799.39
2017-11-01T08:50:33.844Z,100800.72
2017-11-01T08:55:43.298Z,100796.37
2017-11-01T08:58:10.753Z,100796.78
2017-11-01T09:00:38.264Z,100807.53
2017-11-01T09:03:05.831Z,100811.66
2017-11-01T09:05:33.356Z,100805.80
2017-11-01T09:08:00.941Z,100811.21
2017-11-01T09:10:28.518Z,100807.80
2017-11-01T09:12:56.076Z,100810.16
2017-11-01T09:15:23.626Z,100796.23
2017-11-01T09:17:51.274Z,100801.94
2017-11-01T09:20:18.978Z,100804.31
2017-11-01T09:22:46.474Z,100802.72
2017-11-01T09:25:13.951Z,100799.40
2017-11-01T09:27:41.479Z,100799.28
2017-11-01T09:30:09.059Z,100800.88
2017-11-01T09:32:36.583Z,100801.66
2017-11-01T09:35:04.076Z,100808.42
2017-11-01T09:37:31.548Z,100804.59
2017-11-01T09:39:59.119Z,100799.67
2017-11-01T09:42:26.598Z,100807.38
2017-11-01T09:44:54.331Z,100797.22
2017-11-01T09:47:21.891Z,100794.95
2017-11-01T09:49:49.436Z,100798.16
2017-11-01T09:52:18.038Z,100795.40
2017-11-01T09:54:46.523Z,100801.38
2017-11-01T09:57:14.991Z,100796.20
2017-11-01T09:59:43.517Z,100797.95
2017-11-01T10:02:11.312Z,100799.67
2017-11-01T10:04:38.908Z,100792.66
2017-11-01T10:07:08.172Z,100800.74
2017-11-01T10:09:35.685Z,100800.50
2017-11-01T10:12:05.059Z,100791.91
2017-11-01T10:14:35.306Z,100796.95
2017-11-01T10:17:02.837Z,100792.34
2017-11-01T10:19:30.917Z,100793.31
2017-11-01T10:21:58.475Z,100793.96
2017-11-01T10:24:25.971Z,100782.44
2017-11-01T10:26:53.497Z,100782.98
2017-11-01T10:29:21.012Z,100779.69
2017-11-01T10:31:48.518Z,100778.88
2017-11-01T10:34:16.049Z,100770.42
2017-11-01T10:36:43.568Z,100775.05
2017-11-01T10:39:11.121Z,100773.61
2017-11-01T10:41:38.590Z,100770.04
2017-11-01T10:44:06.110Z,100765.78
2017-11-01T10:46:33.630Z,100769.52
2017-11-01T10:49:01.181Z,100766.50
2017-11-01T10:51:28.753Z,100760.78
2017-11-01T10:53:56.239Z,100761.06
2017-11-01T10:56:23.983Z,100748.70
2017-11-01T10:58:51.471Z,100749.63
2017-11-01T11:01:19.001Z,100754.14
2017-11-01T11:03:46.468Z,100749.48
2017-11-01T11:06:13.970Z,100738.44
2017-11-01T11:08:41.479Z,100739.11
2017-11-01T11:11:09.098Z,100738.95
2017-11-01T11:13:36.650Z,100736.81
2017-11-01T11:16:04.179Z,100732.41
2017-11-01T11:18:31.704Z,100738.65
2017-11-01T11:20:59.881Z,100733.86
2017-11-01T11:23:27.385Z,100734.00
2017-11-01T11:25:54.970Z,100738.24
2017-11-01T11:28:22.527Z,100730.81
2017-11-01T11:30:50.077Z,100732.56
2017-11-01T11:33:17.637Z,100734.55
2017-11-01T11:35:45.160Z,100732.30
2017-11-01T11:38:22.946Z,100733.22
2017-11-01T11:40:51.074Z,100729.22
2017-11-01T11:43:19.776Z,100742.52
2017-11-01T11:45:48.272Z,100734.80
2017-11-01T11:48:18.377Z,100731.11
2017-11-01T11:50:46.835Z,100734.83
2017-11-01T11:53:16.640Z,100723.26
2017-11-01T11:55:47.992Z,100731.11
2017-11-01T11:58:15.689Z,100731.38
2017-11-01T12:00:43.190Z,100726.19
2017-11-01T12:03:10.697Z,100725.25
2017-11-01T12:05:38.199Z,100730.04
2017-11-01T12:08:05.702Z,100719.12
2017-11-01T12:10:33.231Z,100716.05
2017-11-01T12:13:00.748Z,100717.78
2017-11-01T12:15:28.242Z,100709.63
2017-11-01T12:17:55.744Z,100706.31
2017-11-01T12:20:23.236Z,100704.59
2017-11-01T12:22:50.890Z,100709.48
2017-11-01T12:25:18.423Z,100711.59
2017-11-01T12:27:45.921Z,100710.42
2017-11-01T12:30:13.445Z,100709.34
2017-11-01T12:32:40.980Z,100701.78
2017-11-01T12:35:08.499Z,100698.86
2017-11-01T12:37:35.998Z,100687.83
2017-11-01T12:40:03.488Z,100695.78
2017-11-01T12:42:30.986Z,100684.36
2017-11-01T12:44:58.523Z,100687.02
2017-11-01T12:47:26.020Z,100685.13
2017-11-01T12:49:53.581Z,100684.34
2017-11-01T12:52:21.091Z,100674.08
2017-11-01T12:54:51.427Z,100667.23
2017-11-01T12:57:19.855Z,100677.98
2017-11-01T12:59:47.745Z,100679.28
2017-11-01T13:02:17.412Z,100681.94
2017-11-01T13:04:55.601Z,100677.55
2017-11-01T13:07:29.139Z,100680.73
2017-11-01T13:09:56.715Z,100678.34
2017-11-01T13:12:24.923Z,100683.27
2017-11-01T13:14:52.407Z,100680.19
2017-11-01T13:17:19.995Z,100673.39
2017-11-01T13:19:47.817Z,100667.92
2017-11-01T13:22:15.771Z,100670.91
2017-11-01T13:24:43.342Z,100672.77
2017-11-01T13:27:10.916Z,100675.32
2017-11-01T13:29:39.782Z,100678.20
2017-11-01T13:32:07.948Z,100680.73
2017-11-01T13:34:35.688Z,100669.84
2017-11-01T13:37:11.321Z,100670.91
2017-11-01T13:39:39.334Z,100661.61
2017-11-01T13:42:07.008Z,100666.16
2017-11-01T13:44:34.578Z,100656.56
2017-11-01T13:47:02.082Z,100664.77
2017-11-01T13:49:29.630Z,100656.30
2017-11-01T13:52:00.350Z,100658.11
2017-11-01T13:54:28.286Z,100657.19
2017-11-01T13:56:55.782Z,100651.72
2017-11-01T13:59:25.881Z,100648.91
2017-11-01T14:01:53.594Z,100664.88
2017-11-01T14:04:21.219Z,100659.56
2017-11-01T14:06:50.370Z,100647.42
2017-11-01T14:09:17.920Z,100648.76
2017-11-01T14:11:45.377Z,100645.31
2017-11-01T14:14:12.930Z,100645.86
2017-11-01T14:16:40.772Z,100650.27
2017-11-01T14:19:08.259Z,100654.25
2017-11-01T14:21:36.334Z,100639.73
2017-11-01T14:24:04.110Z,100652.00
2017-11-01T14:26:31.642Z,100634.97
2017-11-01T14:28:59.214Z,100637.37
2017-11-01T14:31:26.836Z,100626.47
2017-11-01T14:33:54.492Z,100638.58
2017-11-01T14:36:21.965Z,100629.95
2017-11-01T14:38:49.515Z,100610.66
2017-11-01T14:41:17.052Z,100624.50
2017-11-01T14:43:44.546Z,100628.20
2017-11-01T14:46:12.176Z,100635.91
2017-11-01T14:48:39.826Z,100644.80
2017-11-01T14:51:07.348Z,100646.53
2017-11-01T14:53:34.917Z,100656.12
2017-11-01T14:56:02.423Z,100647.44
2017-11-01T14:58:30.277Z,100647.20
2017-11-01T15:00:57.748Z,100643.10
2017-11-01T15:03:25.339Z,100638.42
2017-11-01T15:05:52.932Z,100636.17
2017-11-01T15:08:20.665Z,100640.03
2017-11-01T15:10:48.188Z,100633.55
2017-11-01T15:13:15.680Z,100636.87
2017-11-01T15:15:43.498Z,100628.23
2017-11-01T15:18:10.998Z,100617.33
2017-11-01T15:20:38.582Z,100616.91
2017-11-01T15:23:06.106Z,100613.61
2017-11-01T15:25:33.630Z,100613.05
2017-11-01T15:28:01.124Z,100623.30
2017-11-01T15:30:28.631Z,100625.72
2017-11-01T15:32:56.184Z,100623.46
2017-11-01T15:35:23.695Z,100617.86
2017-11-01T15:37:51.333Z,100620.78
2017-11-01T15:40:18.993Z,100616.27
2017-11-01T15:42:46.629Z,100616.69
2017-11-01T15:45:14.180Z,100617.48
2017-11-01T15:47:41.708Z,100614.66
2017-11-01T15:50:09.193Z,100607.36
2017-11-01T15:52:36.688Z,100607.36
2017-11-01T15:55:04.283Z,100608.03
2017-11-01T15:57:31.764Z,100606.98
2017-11-01T15:59:59.290Z,100608.44
2017-11-01T16:02:26.884Z,100616.44
2017-11-01T16:04:54.405Z,100609.78
2017-11-01T16:07:22.368Z,100608.44
2017-11-01T16:09:49.903Z,100607.13
2017-11-01T16:12:17.533Z,100605.78
2017-11-01T16:14:45.004Z,100614.97
2017-11-01T16:17:13.300Z,100620.27
2017-11-01T16:19:40.829Z,100611.23
2017-11-01T16:22:08.392Z,100622.78
2017-11-01T16:24:35.900Z,100622.28
2017-11-01T16:27:03.392Z,100632.11
2017-11-01T16:29:30.922Z,100624.39
2017-11-01T16:31:58.407Z,100623.61
2017-11-01T16:34:25.968Z,100619.09
2017-11-01T16:36:53.507Z,100620.84
2017-11-01T16:39:21.057Z,100619.89
2017-11-01T16:41:48.686Z,100611.02
2017-11-01T16:44:16.179Z,100618.33
2017-11-01T16:46:43.752Z,100622.97
2017-11-01T16:49:11.245Z,100622.06
2017-11-01T16:51:38.851Z,100623.13
2017-11-01T16:54:06.329Z,100624.56
2017-11-01T16:56:33.815Z,100630.14
2017-11-01T16:59:01.626Z,100635.32
2017-11-01T17:01:29.235Z,100637.98
2017-11-01T17:03:56.823Z,100626.78
2017-11-01T17:06:24.386Z,100634.34
2017-11-01T17:08:51.996Z,100630.37
2017-11-01T17:11:19.524Z,100624.42
2017-11-01T17:13:47.060Z,100643.97
2017-11-01T17:16:14.625Z,100646.50
2017-11-01T17:18:42.121Z,100636.41
2017-11-01T17:21:09.663Z,100636.39
2017-11-01T17:23:37.157Z,100637.57
2017-11-01T17:26:04.700Z,100632.41
2017-11-01T17:28:32.188Z,100622.55
2017-11-01T17:30:59.759Z,100625.62
2017-11-01T17:33:27.264Z,100607.91
2017-11-01T17:35:54.787Z,100608.45
2017-11-01T17:38:22.342Z,100598.73
2017-11-01T17:40:49.849Z,100618.01
2017-11-01T17:43:17.370Z,100615.09
2017-11-01T17:45:44.859Z,100613.09
2017-11-01T17:48:12.335Z,100610.58
2017-11-01T17:50:39.880Z,100607.94
2017-11-01T17:53:07.429Z,100601.99
2017-11-01T17:55:34.953Z,100599.33
2017-11-01T17:58:02.539Z,100604.52
2017-11-01T18:00:30.085Z,100606.78
2017-11-01T18:02:57.614Z,100606.00
2017-11-01T18:05:25.104Z,100605.09
2017-11-01T18:07:58.129Z,100613.98
2017-11-01T18:10:25.679Z,100609.47
2017-11-01T18:12:53.174Z,100612.67
2017-11-01T18:15:20.668Z,100603.37
2017-11-01T18:17:48.198Z,100600.58
2017-11-01T18:20:15.711Z,100594.09
2017-11-01T18:22:43.267Z,100600.33
2017-11-01T18:25:10.733Z,100603.27
2017-11-01T18:27:38.449Z,100610.84
2017-11-01T18:30:05.953Z,100606.06
2017-11-01T18:32:33.534Z,100599.70
2017-11-01T18:35:01.067Z,100607.14
2017-11-01T18:37:29.282Z,100603.84
2017-11-01T18:39:56.784Z,100605.17
2017-11-01T18:42:24.264Z,100605.97
2017-11-01T18:44:51.801Z,100601.56
2017-11-01T18:47:19.365Z,100600.52
2017-11-01T18:49:47.688Z,100603.03
2017-11-01T18:52:15.583Z,100603.72
2017-11-01T18:54:43.156Z,100603.57
2017-11-01T18:57:10.692Z,100593.48
2017-11-01T18:59:38.224Z,100587.77
2017-11-01T19:02:05.763Z,100595.20
2017-11-01T19:04:33.505Z,100596.67
2017-11-01T19:07:01.051Z,100595.88
2017-11-01T19:09:28.603Z,100587.92
2017-11-01T19:11:56.246Z,100585.00
2017-11-01T19:14:23.766Z,100578.90
2017-11-01T19:16:51.375Z,100580.34
2017-11-01T19:19:18.872Z,100574.09
2017-11-01T19:21:46.506Z,100575.98
2017-11-01T19:24:13.973Z,100579.70
2017-11-01T19:26:41.498Z,100579.70
2017-11-01T19:29:09.145Z,100574.92
2017-11-01T19:31:36.916Z,100567.31
2017-11-01T19:34:04.413Z,100562.83
2017-11-01T19:36:31.988Z,100568.80
2017-11-01T19:38:59.636Z,100571.32
2017-11-01T19:41:27.235Z,100579.71
2017-11-01T19:43:54.826Z,100570.68
2017-11-01T19:46:22.407Z,100579.86
2017-11-01T19:48:50.093Z,100571.75
2017-11-01T19:51:18.633Z,100569.64
2017-11-01T19:53:46.190Z,100583.06
2017-11-01T19:56:13.968Z,100578.67
2017-11-01T19:58:41.508Z,100579.08
2017-11-01T20:01:09.319Z,100572.30
2017-11-01T20:03:36.846Z,100569.89
2017-11-01T20:06:04.608Z,100569.78
2017-11-01T20:08:32.393Z,100565.67
2017-11-01T20:11:00.094Z,100569.90
2017-11-01T20:13:27.646Z,100563.67
2017-11-01T20:15:55.205Z,100563.95
2017-11-01T20:18:22.762Z,100568.59
2017-11-01T20:20:50.298Z,100566.09
2017-11-01T20:23:17.870Z,100564.39
2017-11-01T20:25:46.994Z,100573.30
2017-11-01T20:28:15.588Z,100554.98
2017-11-01T20:30:43.711Z,100554.16
2017-11-01T20:33:11.264Z,100552.20
2017-11-01T20:35:38.854Z,100554.86
2017-11-01T20:38:11.379Z,100554.08
2017-11-01T20:40:52.254Z,100552.89
2017-11-01T20:43:20.057Z,100544.25
2017-11-01T20:45:47.586Z,100545.45
2017-11-01T20:48:15.382Z,100543.48
2017-11-01T20:50:42.989Z,100543.84
2017-11-01T20:53:10.470Z,100536.56
2017-11-01T20:55:37.960Z,100535.36
2017-11-01T20:58:05.530Z,100534.81
2017-11-01T21:00:32.977Z,100524.59
2017-11-01T21:03:00.474Z,100522.72
2017-11-01T21:05:28.557Z,100521.52
2017-11-01T21:07:57.084Z,100518.87
2017-11-01T21:10:24.668Z,100523.64
2017-11-01T21:12:52.178Z,100523.53
2017-11-01T21:15:19.732Z,100521.94
2017-11-01T21:17:47.317Z,100524.32
2017-11-01T21:20:14.977Z,100514.23
2017-11-01T21:22:42.490Z,100515.56
2017-11-01T21:25:10.047Z,100521.52
2017-11-01T21:27:37.537Z,100514.22
2017-11-01T21:30:05.123Z,100510.89
2017-11-01T21:32:32.635Z,100508.10
2017-11-01T21:35:00.139Z,100505.16
2017-11-01T21:37:27.618Z,100502.28
2017-11-01T21:39:55.139Z,100494.31
2017-11-01T21:42:22.640Z,100488.88
2017-11-01T21:44:50.150Z,100484.35
2017-11-01T21:47:17.668Z,100483.57
2017-11-01T21:49:45.207Z,100480.50
2017-11-01T21:52:12.696Z,100480.38
2017-11-01T21:54:40.224Z,100472.54
2017-11-01T21:57:07.692Z,100475.73
2017-11-01T21:59:35.245Z,100474.41
2017-11-01T22:02:02.746Z,100470.30
2017-11-01T22:04:30.266Z,100462.58
2017-11-01T22:06:57.754Z,100466.17
2017-11-01T22:09:25.231Z,100475.73
2017-11-01T22:11:52.723Z,100472.41
2017-11-01T22:14:20.221Z,100470.66
2017-11-01T22:16:47.739Z,100470.30
2017-11-01T22:19:15.235Z,100471.10
2017-11-01T22:21:43.650Z,100463.55
2017-11-01T22:24:11.168Z,100457.84
2017-11-01T22:26:38.652Z,100469.39
2017-11-01T22:29:06.163Z,100452.28
2017-11-01T22:31:33.688Z,100451.23
2017-11-01T22:34:01.210Z,100438.79
2017-11-01T22:36:28.762Z,100443.02
2017-11-01T22:38:56.315Z,100432.31
2017-11-01T22:41:23.834Z,100426.60
2017-11-01T22:43:51.308Z,100434.70
2017-11-01T22:46:18.777Z,100422.90
2017-11-01T22:48:46.641Z,100415.32
2017-11-01T22:51:14.103Z,100413.33
2017-11-01T22:53:41.616Z,100421.42
2017-11-01T22:56:09.129Z,100415.16
2017-11-01T22:58:36.633Z,100426.04
2017-11-01T23:01:04.130Z,100428.55
2017-11-01T23:03:31.633Z,100423.37
2017-11-01T23:05:59.157Z,100425.52
2017-11-01T23:08:26.732Z,100430.93
2017-11-01T23:10:54.207Z,100428.55
2017-11-01T23:13:21.692Z,100432.94
2017-11-01T23:15:49.222Z,100427.09
2017-11-01T23:18:16.732Z,100423.38
2017-11-01T23:20:44.199Z,100417.93
2017-11-01T23:23:11.692Z,100422.45
2017-11-01T23:25:39.204Z,100421.92
2017-11-01T23:28:06.713Z,100417.67
2017-11-01T23:30:34.199Z,100421.50
2017-11-01T23:33:01.669Z,100414.93
2017-11-01T23:35:29.165Z,100411.73
2017-11-01T23:37:56.639Z,100403.72
2017-11-01T23:40:24.116Z,100408.05
2017-11-01T23:42:51.587Z,100399.73
2017-11-01T23:45:19.081Z,100393.13
2017-11-01T23:47:46.568Z,100390.52
2017-11-01T23:50:14.036Z,100381.91
2017-11-01T23:52:41.560Z,100390.98
2017-11-01T23:55:09.082Z,100377.84
2017-11-01T23:57:36.616Z,100378.92
